Time;durP1;ratioP1;P1;durP2;ratioP2;P2;SDS_P1;SDS_P2;PMS_P1;PMS_P2;Temp;Humidity;BMP_temperature;BMP_pressure;BME280_temperature;BME280_humidity;BME280_pressure;Samples;Min_cycle;Max_cycle;Signal;HPM_P1;HPM_P2
2022/12/30 00:00:14;;;;;;;14.15;3.03;;;7.50;99.90;;;;;;5060488;28;20087;-70
2022/12/30 00:02:41;;;;;;;12.48;3.00;;;7.50;99.90;;;;;;5034169;28;20060;-69
2022/12/30 00:05:07;;;;;;;19.05;3.30;;;7.50;99.90;;;;;;5051157;28;20119;-69
2022/12/30 00:07:35;;;;;;;13.07;3.10;;;7.50;99.90;;;;;;5053174;28;20041;-70
2022/12/30 00:10:04;;;;;;;26.38;3.80;;;7.50;99.90;;;;;;5053328;28;20048;-70
2022/12/30 00:35:01;;;;;;;15.15;2.92;;;7.40;99.90;;;;;;5053462;28;20119;-70
2022/12/30 00:37:27;;;;;;;13.70;3.25;;;7.40;99.90;;;;;;5068315;28;20118;-69
2022/12/30 00:39:53;;;;;;;12.68;2.97;;;7.40;99.90;;;;;;5072480;28;20477;-69
2022/12/30 00:45:03;;;;;;;18.35;3.38;;;7.30;99.90;;;;;;5071629;28;20135;-71
2022/12/30 00:47:28;;;;;;;10.93;2.90;;;7.40;99.90;;;;;;5072620;28;20121;-71
2022/12/30 00:58:07;;;;;;;13.48;4.43;;;7.30;99.90;;;;;;5072396;28;20044;-70
2022/12/30 01:00:32;;;;;;;21.13;3.05;;;7.30;99.90;;;;;;5071665;28;20493;-69
2022/12/30 01:02:58;;;;;;;8.65;2.63;;;7.30;99.90;;;;;;5072181;28;20736;-69
2022/12/30 01:05:23;;;;;;;12.75;2.72;;;7.30;99.90;;;;;;5071267;28;20954;-70
2022/12/30 01:07:49;;;;;;;17.02;2.97;;;7.20;99.90;;;;;;5055274;28;20045;-70
2022/12/30 01:10:14;;;;;;;8.63;3.00;;;7.20;99.90;;;;;;5052059;28;20057;-69
2022/12/30 01:12:40;;;;;;;7.75;2.17;;;7.20;99.90;;;;;;5051855;28;20444;-69
2022/12/30 01:15:06;;;;;;;8.13;2.70;;;7.20;99.90;;;;;;5049874;28;20045;-70
2022/12/30 01:17:33;;;;;;;14.82;2.75;;;7.30;99.90;;;;;;5050329;28;20037;-69
2022/12/30 01:19:59;;;;;;;12.02;2.45;;;7.30;99.90;;;;;;5051849;28;20045;-69
2022/12/30 01:22:26;;;;;;;11.40;2.47;;;7.20;99.90;;;;;;5051531;28;20099;-70
2022/12/30 01:24:51;;;;;;;11.15;3.08;;;7.20;99.90;;;;;;5050943;28;20074;-70
2022/12/30 01:27:18;;;;;;;10.77;2.22;;;7.10;99.90;;;;;;5051477;28;20133;-69
2022/12/30 01:29:44;;;;;;;16.00;3.25;;;7.20;99.90;;;;;;5051731;28;20037;-71
2022/12/30 01:32:12;;;;;;;11.77;2.60;;;7.10;99.90;;;;;;5051332;28;20077;-70
2022/12/30 01:34:38;;;;;;;10.40;2.38;;;7.10;99.90;;;;;;5050778;28;20401;-70
2022/12/30 01:37:04;;;;;;;10.73;3.00;;;7.10;99.90;;;;;;5051500;28;20041;-70
2022/12/30 01:39:30;;;;;;;15.05;2.60;;;7.10;99.90;;;;;;5051199;28;20037;-69
2022/12/30 01:41:56;;;;;;;10.43;2.83;;;7.10;99.90;;;;;;5049831;28;20554;-71
2022/12/30 01:44:56;;;;;;;9.48;2.55;;;7.10;99.90;;;;;;5050552;28;20041;-70
2022/12/30 01:47:30;;;;;;;7.75;2.38;;;7.00;99.90;;;;;;5051203;28;20048;-71
2022/12/30 01:50:09;;;;;;;15.15;2.80;;;7.00;99.90;;;;;;5048812;28;20040;-70
2022/12/30 01:52:37;;;;;;;18.13;3.28;;;7.00;99.90;;;;;;5060796;28;20515;-70
2022/12/30 01:55:08;;;;;;;22.65;3.90;;;7.00;99.90;;;;;;5063896;28;20525;-70
2022/12/30 01:57:34;;;;;;;15.90;2.95;;;7.00;99.90;;;;;;5071045;28;20580;-69
2022/12/30 02:00:02;;;;;;;9.18;3.15;;;7.00;99.90;;;;;;5070847;28;20045;-70
2022/12/30 02:02:29;;;;;;;13.18;2.55;;;7.00;99.90;;;;;;5069435;28;20051;-70
2022/12/30 02:04:55;;;;;;;12.38;2.63;;;7.00;99.90;;;;;;5068854;28;20055;-70
2022/12/30 02:07:26;;;;;;;12.23;3.25;;;7.00;99.90;;;;;;5070806;28;20570;-69
2022/12/30 02:09:53;;;;;;;16.17;3.22;;;6.90;99.90;;;;;;5069910;28;20378;-70
2022/12/30 02:12:19;;;;;;;14.93;3.20;;;6.90;99.90;;;;;;5070845;28;20032;-69
2022/12/30 02:14:46;;;;;;;11.35;3.33;;;6.90;99.90;;;;;;5068971;28;20132;-70
2022/12/30 02:17:15;;;;;;;14.52;3.13;;;7.00;99.90;;;;;;5070794;28;20040;-69
2022/12/30 02:20:16;;;;;;;11.00;2.92;;;6.90;99.90;;;;;;5070979;28;20098;-70
2022/12/30 02:22:51;;;;;;;17.77;2.88;;;6.90;99.90;;;;;;5070786;28;20040;-69
2022/12/30 02:25:43;;;;;;;15.77;2.78;;;6.90;99.90;;;;;;5069912;28;20083;-71
2022/12/30 02:28:12;;;;;;;10.13;3.00;;;6.90;99.90;;;;;;5070334;28;20047;-70
2022/12/30 02:31:14;;;;;;;8.40;2.20;;;6.90;99.90;;;;;;5070685;28;20142;-69
2022/12/30 02:34:19;;;;;;;9.60;2.90;;;6.90;99.90;;;;;;5070585;28;20047;-69
2022/12/30 02:36:48;;;;;;;15.77;3.08;;;6.80;99.90;;;;;;5059187;28;20409;-71
2022/12/30 02:39:54;;;;;;;12.45;3.22;;;6.80;99.90;;;;;;5070780;28;20040;-70
2022/12/30 02:45:31;;;;;;;9.70;2.92;;;6.80;99.90;;;;;;5070068;28;20146;-69
2022/12/30 02:48:14;;;;;;;11.23;2.92;;;6.80;99.90;;;;;;5070481;28;20477;-70
2022/12/30 02:53:30;;;;;;;17.10;3.58;;;6.70;99.90;;;;;;5060360;28;20489;-71
2022/12/30 02:55:56;;;;;;;19.38;3.58;;;6.70;99.90;;;;;;5062597;28;20036;-69
2022/12/30 02:58:25;;;;;;;9.90;3.40;;;6.60;99.90;;;;;;5070558;28;20098;-69
2022/12/30 03:04:04;;;;;;;15.57;3.38;;;6.50;99.90;;;;;;5070284;28;20452;-69
2022/12/30 03:06:51;;;;;;;15.02;3.67;;;6.50;99.90;;;;;;5070567;28;20083;-71
2022/12/30 03:09:26;;;;;;;14.68;4.10;;;6.40;99.90;;;;;;5070577;28;20086;-70
2022/12/30 03:12:29;;;;;;;7.38;3.05;;;6.50;99.90;;;;;;5069995;28;20040;-70
2022/12/30 03:15:03;;;;;;;12.50;3.38;;;6.40;99.90;;;;;;5045936;28;20041;-72
2022/12/30 03:17:36;;;;;;;14.45;5.03;;;6.50;99.90;;;;;;5047597;28;20088;-70
2022/12/30 03:20:07;;;;;;;13.30;2.92;;;6.50;99.90;;;;;;5047735;28;20524;-69
2022/12/30 03:28:08;;;;;;;9.85;3.13;;;6.30;99.90;;;;;;5030711;28;20053;-70
2022/12/30 03:30:42;;;;;;;11.70;3.00;;;6.30;99.90;;;;;;5030752;28;20115;-69
2022/12/30 03:33:07;;;;;;;7.75;2.85;;;6.20;99.90;;;;;;5047446;28;20120;-69
2022/12/30 03:35:38;;;;;;;10.45;2.88;;;6.20;99.90;;;;;;5030129;28;20140;-69
2022/12/30 03:38:08;;;;;;;6.47;2.42;;;6.10;99.90;;;;;;5030754;28;20098;-70
2022/12/30 03:40:38;;;;;;;25.00;3.40;;;6.10;99.90;;;;;;5032871;28;20099;-69
2022/12/30 03:43:05;;;;;;;11.68;3.58;;;6.10;99.90;;;;;;5051030;28;20114;-69
2022/12/30 03:45:31;;;;;;;15.25;2.53;;;6.00;99.90;;;;;;5050195;28;20056;-69
2022/12/30 03:47:57;;;;;;;16.42;2.97;;;6.00;99.90;;;;;;5037302;28;20457;-70
2022/12/30 03:50:22;;;;;;;9.00;3.55;;;5.90;99.90;;;;;;5069524;28;20044;-70
2022/12/30 03:52:48;;;;;;;8.45;2.75;;;6.00;99.90;;;;;;5049716;28;20040;-70
2022/12/30 03:55:14;;;;;;;10.60;2.72;;;6.00;99.90;;;;;;5059597;28;20501;-69
2022/12/30 03:57:39;;;;;;;7.93;2.97;;;6.10;99.90;;;;;;5072244;28;20040;-69
2022/12/30 04:00:08;;;;;;;18.15;3.35;;;6.00;99.90;;;;;;5055309;28;20045;-70
2022/12/30 04:02:34;;;;;;;10.38;2.55;;;6.10;99.90;;;;;;5073400;28;20404;-70
2022/12/30 04:05:00;;;;;;;9.82;2.53;;;6.00;99.90;;;;;;5072651;28;20048;-70
2022/12/30 04:07:25;;;;;;;10.23;2.70;;;6.00;99.90;;;;;;5072702;28;20044;-69
2022/12/30 04:09:51;;;;;;;10.38;2.55;;;5.90;99.90;;;;;;5073192;28;20029;-70
2022/12/30 04:12:16;;;;;;;11.00;2.75;;;5.90;99.90;;;;;;5072978;28;20126;-71
2022/12/30 04:14:42;;;;;;;10.75;2.70;;;5.80;99.90;;;;;;5072099;28;20513;-69
2022/12/30 04:17:08;;;;;;;9.50;2.45;;;5.90;99.90;;;;;;5070538;28;20059;-69
2022/12/30 04:19:33;;;;;;;8.60;2.50;;;5.80;99.90;;;;;;5071877;28;20463;-69
2022/12/30 04:21:59;;;;;;;12.38;2.65;;;5.80;99.90;;;;;;5072846;28;20032;-70
2022/12/30 04:24:24;;;;;;;14.30;2.85;;;5.80;99.90;;;;;;5072131;28;20032;-70
2022/12/30 04:26:50;;;;;;;8.65;2.30;;;5.80;99.90;;;;;;5072788;28;20044;-69
2022/12/30 04:29:16;;;;;;;7.60;2.25;;;5.90;99.90;;;;;;5072774;28;20464;-70
2022/12/30 04:31:41;;;;;;;9.55;2.90;;;5.80;99.90;;;;;;5072715;28;20046;-70
2022/12/30 04:34:07;;;;;;;8.10;2.35;;;5.80;99.90;;;;;;5072041;28;20040;-70
2022/12/30 04:36:33;;;;;;;9.15;2.78;;;5.80;99.90;;;;;;5071642;28;20558;-69
2022/12/30 04:38:58;;;;;;;8.43;2.50;;;5.70;99.90;;;;;;5072535;28;20565;-69
2022/12/30 04:41:24;;;;;;;7.35;2.60;;;5.70;99.90;;;;;;5072661;28;20040;-69
2022/12/30 04:43:49;;;;;;;9.93;3.10;;;5.70;99.90;;;;;;5071515;28;20412;-70
2022/12/30 04:46:15;;;;;;;9.20;2.45;;;5.70;99.90;;;;;;5071323;28;20040;-71
2022/12/30 04:48:41;;;;;;;8.77;2.60;;;5.60;99.90;;;;;;5072495;28;20040;-70
2022/12/30 04:51:06;;;;;;;11.60;2.72;;;5.60;99.90;;;;;;5066050;28;20464;-69
2022/12/30 04:53:32;;;;;;;6.15;2.58;;;5.50;99.90;;;;;;5036484;28;20044;-70
2022/12/30 04:55:57;;;;;;;9.90;2.53;;;5.60;99.90;;;;;;5062879;28;20119;-71
2022/12/30 04:58:24;;;;;;;14.13;2.60;;;5.60;99.90;;;;;;5072209;28;20119;-70
2022/12/30 05:00:51;;;;;;;10.65;2.30;;;5.60;99.90;;;;;;5071920;28;20070;-70
2022/12/30 05:03:18;;;;;;;8.95;3.58;;;5.60;99.90;;;;;;5070999;28;20052;-70
2022/12/30 05:05:43;;;;;;;12.95;2.17;;;5.60;99.90;;;;;;5071148;28;20485;-69
2022/12/30 05:08:09;;;;;;;9.55;2.35;;;5.60;99.90;;;;;;5070627;28;20122;-69
2022/12/30 05:10:37;;;;;;;8.07;2.63;;;5.60;99.90;;;;;;5070593;28;20405;-70
2022/12/30 05:13:03;;;;;;;11.13;2.63;;;5.60;99.90;;;;;;5072108;28;20048;-70
2022/12/30 05:15:28;;;;;;;11.73;3.15;;;5.50;99.90;;;;;;5068642;28;20119;-69
2022/12/30 05:17:54;;;;;;;8.27;2.42;;;5.60;99.90;;;;;;5071772;28;20166;-70
2022/12/30 05:20:20;;;;;;;9.30;2.70;;;5.60;99.90;;;;;;5071829;28;20036;-70
2022/12/30 05:22:45;;;;;;;10.27;2.63;;;5.60;99.90;;;;;;5070258;28;20039;-70
2022/12/30 05:27:55;;;;;;;8.52;2.85;;;5.60;99.90;;;;;;5071681;28;20056;-70
2022/12/30 05:30:21;;;;;;;11.25;3.42;;;5.50;99.90;;;;;;5071703;28;20036;-70
2022/12/30 05:32:46;;;;;;;13.70;2.50;;;5.60;99.90;;;;;;5071315;28;20036;-70
2022/12/30 05:35:12;;;;;;;13.05;2.75;;;5.50;99.90;;;;;;5070980;28;20044;-71
2022/12/30 05:37:38;;;;;;;7.88;2.53;;;5.50;99.90;;;;;;5071394;28;20045;-70
2022/12/30 05:40:07;;;;;;;6.82;2.60;;;5.50;99.90;;;;;;5071521;28;20044;-70
2022/12/30 05:42:33;;;;;;;14.60;3.00;;;5.50;99.90;;;;;;5071464;28;20102;-69
2022/12/30 05:44:59;;;;;;;11.82;2.80;;;5.50;99.90;;;;;;5070469;28;20044;-69
2022/12/30 05:47:24;;;;;;;11.07;2.33;;;5.40;99.90;;;;;;5071231;28;20437;-71
2022/12/30 05:49:50;;;;;;;7.07;2.70;;;5.50;99.90;;;;;;5071357;28;20036;-70
2022/12/30 05:52:16;;;;;;;12.25;2.60;;;5.40;99.90;;;;;;5057593;28;20068;-70
2022/12/30 05:54:42;;;;;;;10.10;2.20;;;5.40;99.90;;;;;;5055778;28;20051;-69
2022/12/30 05:57:08;;;;;;;13.45;2.88;;;5.40;99.90;;;;;;5062737;28;20112;-70
2022/12/30 05:59:33;;;;;;;10.50;2.38;;;5.40;99.90;;;;;;5070968;28;20040;-69
2022/12/30 06:01:59;;;;;;;14.02;2.97;;;5.30;99.90;;;;;;5070483;28;20128;-70
2022/12/30 06:04:25;;;;;;;11.40;2.75;;;5.30;99.90;;;;;;5070244;28;20046;-70
2022/12/30 06:06:51;;;;;;;9.23;2.97;;;5.30;99.90;;;;;;5069475;28;20529;-70
2022/12/30 06:09:16;;;;;;;11.73;2.88;;;5.30;99.90;;;;;;5071097;28;20085;-70
2022/12/30 06:11:42;;;;;;;14.27;2.60;;;5.30;99.90;;;;;;5070613;28;20492;-69
2022/12/30 06:14:10;;;;;;;12.75;3.08;;;5.30;99.90;;;;;;5070201;28;20413;-69
2022/12/30 06:16:35;;;;;;;9.95;2.83;;;5.20;99.90;;;;;;5068639;28;20069;-69
2022/12/30 06:19:01;;;;;;;11.80;2.67;;;5.20;99.90;;;;;;5066545;28;20112;-69
2022/12/30 06:21:26;;;;;;;14.82;2.63;;;5.20;99.90;;;;;;5049343;28;20040;-69
2022/12/30 06:23:52;;;;;;;6.75;3.00;;;5.20;99.90;;;;;;5050105;28;20045;-69
2022/12/30 06:26:18;;;;;;;12.73;2.30;;;5.20;99.90;;;;;;5051054;28;20041;-70
2022/12/30 06:28:43;;;;;;;12.20;2.72;;;5.20;99.90;;;;;;5050729;28;20039;-71
2022/12/30 06:31:09;;;;;;;13.48;2.90;;;5.10;99.90;;;;;;5050709;28;20132;-69
2022/12/30 06:33:35;;;;;;;13.80;2.70;;;5.20;99.90;;;;;;5050577;28;20553;-70
2022/12/30 06:36:01;;;;;;;7.82;3.08;;;5.20;99.90;;;;;;5050193;28;20433;-69
2022/12/30 06:38:26;;;;;;;10.20;2.60;;;5.10;99.90;;;;;;5050748;28;20037;-70
2022/12/30 06:40:52;;;;;;;10.40;2.80;;;5.10;99.90;;;;;;5048810;28;20037;-69
2022/12/30 06:43:17;;;;;;;5.80;2.28;;;5.20;99.90;;;;;;5050372;28;20048;-72
2022/12/30 06:45:43;;;;;;;6.75;2.15;;;5.10;99.90;;;;;;5049759;28;20072;-70
2022/12/30 06:48:09;;;;;;;10.02;2.60;;;5.10;99.90;;;;;;5049205;28;20580;-69
2022/12/30 06:50:36;;;;;;;11.43;3.10;;;5.20;99.90;;;;;;5050491;28;20408;-70
2022/12/30 06:53:02;;;;;;;9.18;3.42;;;5.10;99.90;;;;;;5050330;28;20493;-70
2022/12/30 06:55:28;;;;;;;17.60;3.38;;;5.10;99.90;;;;;;5048134;28;20577;-70
2022/12/30 06:57:53;;;;;;;15.25;3.33;;;5.10;99.90;;;;;;5053128;28;20089;-70
2022/12/30 07:00:19;;;;;;;6.97;2.40;;;5.10;99.90;;;;;;5061181;28;20587;-69
2022/12/30 07:02:44;;;;;;;12.43;2.50;;;5.10;99.90;;;;;;5057499;28;20045;-71
2022/12/30 07:05:10;;;;;;;9.57;2.42;;;5.10;99.90;;;;;;5056363;28;20456;-69
2022/12/30 07:07:35;;;;;;;11.13;2.58;;;5.10;99.90;;;;;;5068731;28;20067;-70
2022/12/30 07:10:01;;;;;;;6.03;2.30;;;5.10;99.90;;;;;;5069066;28;20386;-70
2022/12/30 07:12:27;;;;;;;9.18;2.40;;;5.10;99.90;;;;;;5070248;28;20036;-69
2022/12/30 07:14:52;;;;;;;7.80;2.85;;;5.10;99.90;;;;;;5072278;28;20113;-71
2022/12/30 07:17:18;;;;;;;17.63;3.00;;;5.10;99.90;;;;;;5072619;28;20040;-70
2022/12/30 07:19:46;;;;;;;14.60;2.90;;;5.10;99.90;;;;;;5074110;28;20031;-73
2022/12/30 07:22:12;;;;;;;7.55;2.28;;;5.10;99.90;;;;;;5072945;28;20469;-72
2022/12/30 07:24:37;;;;;;;10.65;2.75;;;5.80;99.90;;;;;;5067112;28;20119;-71
2022/12/30 07:27:03;;;;;;;9.27;2.47;;;5.40;99.90;;;;;;5068109;28;20044;-70
2022/12/30 07:29:28;;;;;;;14.27;3.15;;;5.30;99.90;;;;;;5071048;28;20144;-71
2022/12/30 07:31:54;;;;;;;19.10;3.70;;;5.30;99.90;;;;;;5069070;28;20051;-69
2022/12/30 07:34:20;;;;;;;8.68;2.60;;;5.30;99.90;;;;;;5071635;28;20132;-70
2022/12/30 07:36:45;;;;;;;14.40;2.88;;;5.30;99.90;;;;;;5072516;28;20493;-70
2022/12/30 07:39:11;;;;;;;13.30;2.45;;;5.30;99.90;;;;;;5073808;28;20029;-71
2022/12/30 07:41:36;;;;;;;6.93;2.08;;;5.30;99.90;;;;;;5072260;28;20040;-70
2022/12/30 07:44:02;;;;;;;8.77;2.97;;;5.30;99.90;;;;;;5071514;28;20115;-70
2022/12/30 07:46:27;;;;;;;14.15;3.55;;;5.30;99.90;;;;;;5072306;28;20075;-70
2022/12/30 07:48:53;;;;;;;11.27;2.70;;;5.30;99.90;;;;;;5073719;28;20071;-71
2022/12/30 07:51:19;;;;;;;12.65;2.92;;;5.20;99.90;;;;;;5072465;28;20036;-70
2022/12/30 07:53:44;;;;;;;13.18;2.60;;;5.20;99.90;;;;;;5071409;28;20055;-73
2022/12/30 07:56:11;;;;;;;10.32;4.40;;;5.30;99.90;;;;;;5073836;28;20392;-69
2022/12/30 07:58:38;;;;;;;17.85;3.25;;;5.20;99.90;;;;;;5072006;28;20535;-71
2022/12/30 08:01:08;;;;;;;10.68;3.17;;;5.30;99.90;;;;;;5053314;28;20043;-71
2022/12/30 08:03:34;;;;;;;12.57;2.95;;;5.20;99.90;;;;;;5053360;28;20049;-70
2022/12/30 08:06:08;;;;;;;11.80;3.30;;;5.30;99.90;;;;;;5052639;28;20045;-74
2022/12/30 08:08:35;;;;;;;16.52;2.97;;;5.20;99.90;;;;;;5052157;28;20398;-69
2022/12/30 08:11:01;;;;;;;17.65;3.67;;;5.30;99.90;;;;;;5052963;28;20528;-70
2022/12/30 08:13:27;;;;;;;9.60;2.65;;;5.30;99.90;;;;;;5035054;28;20041;-70
2022/12/30 08:15:52;;;;;;;7.43;2.38;;;5.30;99.90;;;;;;5052454;28;20033;-69
2022/12/30 08:18:18;;;;;;;2.63;2.20;;;5.30;99.90;;;;;;5053311;28;20120;-70
2022/12/30 08:20:44;;;;;;;13.25;3.10;;;5.30;99.90;;;;;;5053200;28;20047;-70
2022/12/30 08:23:09;;;;;;;13.18;2.67;;;5.40;99.90;;;;;;5053026;28;20053;-69
2022/12/30 08:25:35;;;;;;;12.63;2.92;;;5.40;99.90;;;;;;5051517;28;20048;-69
2022/12/30 08:28:00;;;;;;;13.95;2.90;;;5.40;99.90;;;;;;5053052;28;20046;-70
2022/12/30 08:30:26;;;;;;;9.57;3.25;;;5.40;99.90;;;;;;5052614;28;20072;-71
2022/12/30 08:32:52;;;;;;;8.98;2.90;;;5.40;99.90;;;;;;5052789;28;20044;-70
2022/12/30 08:35:18;;;;;;;9.30;2.70;;;5.40;99.90;;;;;;5050962;28;20041;-69
2022/12/30 08:37:44;;;;;;;8.25;2.70;;;5.50;99.90;;;;;;5052726;28;20045;-69
2022/12/30 08:40:10;;;;;;;15.00;3.15;;;5.50;99.90;;;;;;5052775;28;20416;-70
2022/12/30 08:42:36;;;;;;;12.18;2.58;;;5.50;99.90;;;;;;5052530;28;20466;-69
2022/12/30 08:45:05;;;;;;;10.98;3.33;;;5.50;99.90;;;;;;5050441;28;20048;-71
2022/12/30 08:47:32;;;;;;;13.48;3.78;;;5.50;99.90;;;;;;5052448;28;20045;-69
2022/12/30 08:49:57;;;;;;;8.48;2.58;;;5.60;99.90;;;;;;5052357;28;20044;-69
2022/12/30 08:52:24;;;;;;;9.40;2.47;;;5.60;99.90;;;;;;5052269;28;20094;-70
2022/12/30 08:54:50;;;;;;;10.05;3.03;;;5.60;99.90;;;;;;5051581;28;20410;-70
2022/12/30 08:57:15;;;;;;;15.07;2.97;;;5.70;99.90;;;;;;5054530;28;20043;-70
2022/12/30 08:59:41;;;;;;;16.95;3.13;;;5.70;99.90;;;;;;5061669;28;20072;-70
2022/12/30 09:02:11;;;;;;;12.07;2.42;;;5.70;99.90;;;;;;5062773;28;20060;-69
2022/12/30 09:04:36;;;;;;;11.70;2.95;;;5.70;99.90;;;;;;5056757;28;20044;-70
2022/12/30 09:07:02;;;;;;;8.48;2.10;;;5.80;99.90;;;;;;5060185;28;20048;-70
2022/12/30 09:09:29;;;;;;;6.93;2.85;;;5.80;99.90;;;;;;5044681;28;20037;-69
2022/12/30 09:11:55;;;;;;;13.82;2.25;;;5.80;99.90;;;;;;5057821;28;20421;-71
2022/12/30 09:14:22;;;;;;;6.95;2.70;;;5.80;99.90;;;;;;5060845;28;20032;-70
2022/12/30 09:16:48;;;;;;;10.90;2.95;;;5.90;99.90;;;;;;5062310;28;20041;-70
2022/12/30 09:19:14;;;;;;;7.90;3.15;;;5.90;99.90;;;;;;5059108;28;20083;-69
2022/12/30 09:21:39;;;;;;;8.63;2.38;;;5.90;99.90;;;;;;5060454;28;20485;-70
2022/12/30 09:24:05;;;;;;;11.18;2.70;;;5.90;99.90;;;;;;5059919;28;20051;-70
2022/12/30 09:26:31;;;;;;;8.02;2.22;;;6.00;99.90;;;;;;5070440;28;20098;-69
2022/12/30 09:28:58;;;;;;;6.82;2.35;;;6.00;99.90;;;;;;5070635;28;20456;-69
2022/12/30 09:31:24;;;;;;;9.68;2.63;;;6.00;99.90;;;;;;5070392;28;20101;-70
2022/12/30 09:33:50;;;;;;;6.93;2.25;;;6.10;99.90;;;;;;5064352;28;20037;-70
2022/12/30 09:36:16;;;;;;;12.98;2.35;;;6.10;99.90;;;;;;5050013;28;20123;-69
2022/12/30 09:38:41;;;;;;;12.27;2.40;;;6.10;99.90;;;;;;5047445;28;20132;-71
2022/12/30 09:43:14;;;;;;;7.68;2.00;;;6.20;99.90;;;;;;5051336;28;20037;-69
2022/12/30 09:44:24;;;;;;;6.55;2.55;;;6.20;99.90;;;;;;5050372;28;20052;-71
2022/12/30 09:47:05;;;;;;;8.40;2.13;;;6.30;99.90;;;;;;5051463;28;20040;-70
2022/12/30 09:49:36;;;;;;;18.35;3.53;;;6.30;99.90;;;;;;5050046;28;20053;-70
2022/12/30 09:52:14;;;;;;;7.67;2.40;;;6.30;99.90;;;;;;5049879;28;20045;-70
2022/12/30 09:54:53;;;;;;;6.32;2.45;;;6.40;99.90;;;;;;5050799;28;20049;-71
2022/12/30 09:57:32;;;;;;;7.78;2.22;;;6.40;99.90;;;;;;5033294;28;20036;-69
2022/12/30 10:00:17;;;;;;;6.45;2.60;;;6.50;99.90;;;;;;5050023;28;20066;-71
2022/12/30 10:03:01;;;;;;;6.63;2.42;;;6.50;99.90;;;;;;5051108;28;20122;-68
2022/12/30 10:05:43;;;;;;;9.05;2.75;;;6.50;99.90;;;;;;5050329;28;20089;-69
2022/12/30 10:08:15;;;;;;;6.28;2.03;;;6.60;99.90;;;;;;5049732;28;20101;-69
2022/12/30 10:10:47;;;;;;;10.20;2.60;;;6.60;99.90;;;;;;5049922;28;20116;-70
2022/12/30 10:13:24;;;;;;;6.03;2.35;;;6.60;99.90;;;;;;5051116;28;20053;-69
2022/12/30 10:16:01;;;;;;;4.38;1.85;;;6.60;99.90;;;;;;5050388;28;20037;-69
2022/12/30 10:18:46;;;;;;;5.30;2.10;;;6.70;99.90;;;;;;5030982;28;20072;-69
2022/12/30 10:21:57;;;;;;;8.15;2.65;;;6.70;99.90;;;;;;5031130;28;20041;-69
2022/12/30 10:24:57;;;;;;;5.20;2.28;;;6.80;99.90;;;;;;4994342;28;20106;-71
2022/12/30 10:27:40;;;;;;;8.50;2.15;;;6.80;99.90;;;;;;5019142;28;20056;-70
2022/12/30 10:30:40;;;;;;;9.65;2.58;;;6.80;99.90;;;;;;5029642;28;20047;-69
2022/12/30 10:33:12;;;;;;;7.90;3.22;;;6.80;99.90;;;;;;5026633;28;20457;-69
2022/12/30 10:35:39;;;;;;;12.15;3.35;;;6.90;99.90;;;;;;5030259;28;20120;-69
2022/12/30 10:38:14;;;;;;;8.23;3.78;;;6.90;99.90;;;;;;5013112;28;20085;-71
2022/12/30 10:40:58;;;;;;;6.13;2.72;;;7.00;99.90;;;;;;5030565;28;20045;-68
2022/12/30 10:43:45;;;;;;;7.40;3.30;;;7.00;99.90;;;;;;5030970;28;20041;-69
2022/12/30 10:46:33;;;;;;;13.05;2.63;;;7.10;99.90;;;;;;5029394;28;20175;-70
2022/12/30 10:49:02;;;;;;;11.38;2.50;;;7.10;99.90;;;;;;5032191;28;20049;-69
2022/12/30 10:51:28;;;;;;;9.07;2.50;;;7.10;99.90;;;;;;5034751;28;20038;-70
2022/12/30 10:53:55;;;;;;;5.00;2.20;;;7.10;99.90;;;;;;5032570;28;20548;-70
2022/12/30 10:56:29;;;;;;;14.15;2.80;;;7.20;99.90;;;;;;5034494;28;20505;-69
2022/12/30 10:58:59;;;;;;;11.75;2.60;;;7.20;99.90;;;;;;5034724;28;20038;-69
2022/12/30 11:01:31;;;;;;;7.38;2.40;;;7.20;99.90;;;;;;5034663;28;20060;-69
2022/12/30 11:03:58;;;;;;;7.47;2.63;;;7.20;99.90;;;;;;5032505;28;20045;-69
2022/12/30 11:06:31;;;;;;;3.67;2.10;;;7.30;99.90;;;;;;5034384;28;20037;-69
2022/12/30 11:09:12;;;;;;;7.15;2.35;;;7.30;99.90;;;;;;5034299;28;20038;-69
2022/12/30 11:14:46;;;;;;;4.75;2.45;;;7.40;99.90;;;;;;5033644;28;20132;-69
2022/12/30 11:17:14;;;;;;;4.80;2.38;;;7.40;99.90;;;;;;5036611;28;20106;-69
2022/12/30 11:19:41;;;;;;;5.90;2.40;;;7.40;99.90;;;;;;5053325;28;20045;-69
2022/12/30 11:22:07;;;;;;;14.18;2.42;;;7.50;99.90;;;;;;5053872;28;20057;-69
2022/12/30 11:24:32;;;;;;;3.13;2.15;;;7.50;99.90;;;;;;5051606;28;20083;-69
2022/12/30 11:27:00;;;;;;;4.43;2.13;;;7.60;99.90;;;;;;5049616;28;20494;-70
2022/12/30 11:29:29;;;;;;;5.28;1.63;;;7.60;99.90;;;;;;5050030;28;20044;-69
2022/12/30 11:31:55;;;;;;;5.97;1.80;;;7.60;99.90;;;;;;5052793;28;20167;-69
2022/12/30 11:34:34;;;;;;;7.28;2.25;;;7.70;99.90;;;;;;5052745;28;20052;-69
2022/12/30 11:37:31;;;;;;;5.93;2.10;;;7.70;99.90;;;;;;5053926;28;20124;-69
2022/12/30 11:40:18;;;;;;;11.82;2.67;;;7.70;99.90;;;;;;5050615;28;20037;-69
2022/12/30 11:42:43;;;;;;;6.28;2.08;;;7.80;99.90;;;;;;5054575;28;20584;-69
2022/12/30 11:45:27;;;;;;;7.15;3.20;;;7.80;99.90;;;;;;5060916;28;20044;-68
2022/12/30 11:47:59;;;;;;;4.30;2.22;;;7.80;99.90;;;;;;5056476;28;20037;-69
2022/12/30 11:50:25;;;;;;;6.47;2.25;;;7.80;99.90;;;;;;5052987;28;20044;-70
2022/12/30 11:52:56;;;;;;;7.53;1.98;;;7.90;99.90;;;;;;5053197;28;20049;-69
2022/12/30 11:55:25;;;;;;;5.25;2.30;;;7.90;99.90;;;;;;5052474;28;20092;-69
2022/12/30 11:58:00;;;;;;;10.57;1.90;;;7.90;99.90;;;;;;5053487;28;20040;-69
2022/12/30 12:00:36;;;;;;;3.75;2.15;;;8.00;99.90;;;;;;5051948;28;20037;-68
2022/12/30 12:03:07;;;;;;;5.28;2.00;;;8.00;99.90;;;;;;5053177;28;20211;-74
2022/12/30 12:05:42;;;;;;;4.60;1.90;;;8.00;99.90;;;;;;5054013;28;20405;-69
2022/12/30 12:08:16;;;;;;;4.70;2.05;;;8.00;99.90;;;;;;5053458;28;20044;-69
2022/12/30 12:10:45;;;;;;;7.72;2.10;;;8.10;99.90;;;;;;5053438;28;20052;-69
2022/12/30 12:13:20;;;;;;;6.20;2.08;;;8.20;99.90;;;;;;5052887;28;20041;-69
2022/12/30 12:15:57;;;;;;;4.38;1.98;;;8.20;99.90;;;;;;5052435;28;20098;-69
2022/12/30 12:18:55;;;;;;;8.88;2.42;;;8.20;99.90;;;;;;5051877;28;20406;-70
2022/12/30 12:21:28;;;;;;;5.72;1.77;;;8.20;99.90;;;;;;5051602;28;20475;-69
2022/12/30 12:24:05;;;;;;;5.70;1.98;;;8.20;99.90;;;;;;5050742;28;20045;-69
2022/12/30 12:26:47;;;;;;;3.38;2.30;;;8.20;99.90;;;;;;5052850;28;20497;-70
2022/12/30 12:29:14;;;;;;;4.03;1.83;;;8.30;99.90;;;;;;5052873;28;20133;-69
2022/12/30 12:32:09;;;;;;;3.03;1.95;;;8.30;99.90;;;;;;5052755;28;20131;-69
2022/12/30 12:35:02;;;;;;;4.93;1.98;;;8.30;99.90;;;;;;5059849;28;20060;-73
2022/12/30 12:37:52;;;;;;;3.30;2.15;;;8.40;99.90;;;;;;5035074;28;20068;-70
2022/12/30 12:40:45;;;;;;;6.47;2.13;;;8.40;99.90;;;;;;5051690;28;20037;-69
2022/12/30 12:43:40;;;;;;;5.78;1.70;;;8.30;99.90;;;;;;5052743;28;20128;-69
2022/12/30 12:46:24;;;;;;;5.78;1.75;;;8.40;99.90;;;;;;5052098;28;20051;-71
2022/12/30 12:49:09;;;;;;;4.30;1.70;;;8.30;99.90;;;;;;5052637;28;20060;-71
2022/12/30 12:51:50;;;;;;;4.25;1.90;;;8.40;99.90;;;;;;5052392;28;20778;-70
2022/12/30 12:54:27;;;;;;;5.80;1.98;;;8.40;99.90;;;;;;5050149;28;20052;-69
2022/12/30 12:57:02;;;;;;;9.77;1.85;;;8.50;99.90;;;;;;5051228;28;20559;-69
2022/12/30 12:59:48;;;;;;;4.60;1.75;;;8.50;99.90;;;;;;5052219;28;20404;-69
2022/12/30 13:02:35;;;;;;;5.85;1.48;;;8.50;99.90;;;;;;5052215;28;20063;-69
2022/12/30 13:05:38;;;;;;;2.95;1.48;;;8.50;99.90;;;;;;5051321;28;20397;-69
2022/12/30 13:08:14;;;;;;;5.33;2.30;;;8.60;99.90;;;;;;5040561;28;20102;-69
2022/12/30 13:11:01;;;;;;;3.78;1.67;;;8.60;99.90;;;;;;5052216;28;20051;-69
2022/12/30 13:13:53;;;;;;;9.32;2.50;;;8.50;99.90;;;;;;5050449;28;20556;-70
2022/12/30 13:16:23;;;;;;;2.40;1.40;;;8.60;99.90;;;;;;5052101;28;20068;-69
2022/12/30 13:18:52;;;;;;;3.47;1.63;;;8.60;99.90;;;;;;5051970;28;20436;-69
2022/12/30 13:21:21;;;;;;;4.47;1.50;;;8.60;99.90;;;;;;5051656;28;20029;-70
2022/12/30 13:23:50;;;;;;;9.43;2.00;;;8.60;99.90;;;;;;5033116;28;20049;-69
2022/12/30 13:26:21;;;;;;;6.82;1.70;;;8.60;99.90;;;;;;5051508;28;20044;-69
2022/12/30 13:28:54;;;;;;;7.43;2.08;;;8.60;99.90;;;;;;5051919;28;20167;-69
2022/12/30 13:31:31;;;;;;;;;;;8.60;99.90;;;;;;5052151;28;20055;-70
2022/12/30 13:34:06;;;;;;;2.83;1.40;;;8.60;99.90;;;;;;5049477;28;19921;-70
2022/12/30 13:36:46;;;;;;;4.00;1.63;;;8.70;99.90;;;;;;5050476;28;20383;-70
2022/12/30 13:39:44;;;;;;;4.88;1.88;;;8.70;99.90;;;;;;5051734;28;20454;-69
2022/12/30 13:42:34;;;;;;;5.00;1.30;;;8.70;99.90;;;;;;5040951;28;20060;-69
2022/12/30 13:45:01;;;;;;;1.85;1.30;;;8.70;99.90;;;;;;5049613;28;20048;-69
2022/12/30 13:47:39;;;;;;;3.63;1.80;;;8.70;99.90;;;;;;5051485;28;20029;-69
2022/12/30 13:50:20;;;;;;;4.70;1.52;;;8.70;99.90;;;;;;5051501;28;20629;-69
2022/12/30 13:52:57;;;;;;;4.80;2.13;;;8.70;99.90;;;;;;5051255;28;20041;-70
2022/12/30 13:55:30;;;;;;;6.78;1.63;;;8.80;99.90;;;;;;5049180;28;20041;-69
2022/12/30 13:58:16;;;;;;;4.07;1.65;;;8.80;99.90;;;;;;5051467;28;20041;-69
2022/12/30 14:00:43;;;;;;;3.35;1.55;;;8.90;99.90;;;;;;5050897;28;20037;-69
2022/12/30 14:03:17;;;;;;;12.15;2.15;;;9.00;99.90;;;;;;5049844;28;20041;-69
2022/12/30 14:05:43;;;;;;;5.72;2.05;;;9.00;99.90;;;;;;5048541;28;20048;-69